Shields, ND (58569)

5:51 AM MST on December 10, 2016 (GMT -0700)
Mandan | | Change Station
Active Advisory: Wind Chill Advisory

Elev 1942 ft 46.77 °N, 100.89 °W | Updated 36 minutes ago

Mostly Cloudy
Mostly Cloudy
-13 °F
Feels Like -27 °F
N
6
Wind Variable Wind from East

Today
High -- | Low -- °F
--% Chance of Precip.
Yesterday
High -- | Low -- °F
Precip. -- in
Pressure 30.32 in
Visibility 10.0 miles
Clouds Overcast 300 ft
Windchill -27 °F
Dew Point -18 °F
Humidity 77%
Rainfall 0.00 in
Snow Depth Not available.
7:16 AM 3:58 PM
Waxing Gibbous, 83% visible
METAR KY19 101215Z AUTO 09005KT 10SM OVC003 M25/M28 A3032 RMK AO2
Pressure 30.32 in
Visibility 10.0 miles
Clouds Overcast 300 ft
Windchill -27 °F
Dew Point -18 °F
Humidity 77%
Rainfall 0.00 in
Snow Depth Not available.
7:16 AM 3:58 PM
Waxing Gibbous, 83% visible
METAR KY19 101215Z AUTO 09005KT 10SM OVC003 M25/M28 A3032 RMK AO2

10-Day Weather Forecast

Almanac

Astronomy

Dec. 10, 2016 Rise Set
Actual Time
Civil Twilight
Nautical Twilight
Astronomical Twilight
Moon
Length of Visible Light
Length of Day
Tomorrow will be .
, % of the Moon is Illuminated

Today's Extremes

State Highs State Lows

Community

WunderPhotos

Upload Photos

1,956,540 photos uploaded!

WunderBlog® & News

Nearby

Air Quality

  Air Quality AQ Index Pollutant
Not available.

Snow Depth

Station Depth Elevation

Earthquake Activity

City Distance Mag. Time & Date
Minimum magnitude displayed is 2.5.

Coastal Water Temperatures

Place Temperature

Stations

Nearby Weather Stations

Station Location Temp. Windchill Dew Point Humidity Wind Precip. Elev Updated Type
                   

Watches & Warnings

Wind Chill Advisory
Issued: 3:05 AM MST Dec. 10, 2016 – National Weather Service

... Wind Chill Advisory remains in effect until noon CST /11 am
MST/ today...

* expect wind chills to range from 25 below zero to 40 below zero
this morning.

* The cold wind chills will cause frostbite in as little as 30
minutes to exposed skin.

Precautionary/preparedness actions...

Dress warmly and in layers if you need to be outdoors. Make sure
you wear a hat and gloves.



Cjs/KS